Riyad Halliche

Recruteur - ES Setif
7 Déc 2028
Jeudi
Processus

Personnalité

Adaptabilité (3) Ambition (11) Controverse (10) Loyauté (11) Pression (13) Professionnalisme (10) Sportivité (20) Tempérament (19)

Profil

Style d'entraînement Démocratique
Diplôme Continental B
Détermination 5
Gestion des joueurs 10
Motivation 9
Discipline 12
Satisfaction professionnelle
97%
Fatigue
0%
Rôle Recruteur
Salaire 18.5K p/s
Contrat 14.03.2029

Performance

Comportement Bon
Efficacité de l'entraînement
37%
Développement des joueurs
25%
Prévention des blessures
20%
Mise en place tactique
45%

Événements récents

A participé à une réunion de recrutement maintenant
A évalué un joueur 7j
A évalué un joueur 7j
A observé un match 7j
A observé un match 7j
A observé un match 7j
A évalué un joueur 7j
A évalué un joueur 7j

Suivi en cours

295
Joueur Club Statut Capacité Confiance Observé Dernière observation Dernier vote
Gonzalo Pérez Lanús Actif 121 / 124 40% 2 06.12.2028 -
Gastón Hernández San Lorenzo Actif 128 / 124 40% 1 06.12.2028 -
Santiago Núñez Estudiantes Actif 138 / 129 40% 1 06.12.2028 -
Teddy Sharman-Lowe Barnsley Actif 134 / 134 40% 5 05.12.2028 -
Adrian Šemper Al-Fateh Actif 129 / 136 40% 3 05.12.2028 -
Oleksandr Kemkin Karpaty Actif 131 / 132 40% 1 05.12.2028 -
Jonathan De Irastorza Independiente Actif 127 / 133 40% 2 03.12.2028 -
Sasha Marcich Lanús Actif 126 / 129 40% 4 03.12.2028 -
Antonio Galeano Remo Stars Actif 134 / 126 40% 3 02.12.2028 -
Saeed Al Junaibi Al-Ra'ed Actif 141 / 132 40% 1 02.12.2028 -
Franco Cristaldo Talleres Actif 123 / 116 40% 3 01.12.2028 -
Luciano Herrera Newell's Old Boys Actif 132 / 120 40% 2 01.12.2028 -
Tiago Palacios Estudiantes Actif 131 / 141 40% 1 01.12.2028 -
Matías Reali San Lorenzo Actif 133 / 129 40% 1 30.11.2028 -
Soma Anzai FC Tokyo Actif 130 / 118 40% 1 30.11.2028 -
Gonzalo Luján Inter Miami CF Actif 138 / 131 40% 4 29.11.2028 -
Marcos López Gimnasia La Plata Actif 141 / 140 40% 3 29.11.2028 -
Felipe Peña Biafore Lanús Actif 124 / 127 40% 3 29.11.2028 -
Rodrigo Herrera Newell's Old Boys Actif 119 / 122 40% 2 29.11.2028 -
Iñaki Larthirigoyen San Telmo Actif 132 / 112 40% 2 29.11.2028 -
Mohammed Al-Qahtani Al-Qadisiyah Actif 121 / 128 40% 1 29.11.2028 -
Vanja Milinković-Savić Atalanta Actif 148 / 154 40% 2 28.11.2028 -
Jacob Widell Zetterström Stoke City Actif 145 / 142 40% 2 28.11.2028 -
Jacopo Seghetti Empoli Actif 136 / 133 40% 1 28.11.2028 -
Oufa Shobeir MC Alger Actif 128 / 141 40% 4 27.11.2028 -
Josh Keeley Luton Town Actif 133 / 141 40% 3 27.11.2028 -
Robby McCrorie NK Varazdin Actif 137 / 129 40% 1 27.11.2028 -
Tomás Pozzo Godoy Cruz Actif 134 / 118 40% 5 25.11.2028 -
Matías Galarza Talleres Actif 134 / 134 40% 5 25.11.2028 -
Anthony Patterson Wrexham Actif 134 / 137 40% 4 24.11.2028 -
Sol Brynn Bradford City Actif 147 / 130 40% 5 24.11.2028 -
Evgeny Latyshonok Nizhniy Novgorod Actif 132 / 138 40% 2 24.11.2028 -
Santiago Montiel Independiente Actif 123 / 129 40% 5 23.11.2028 -
Alejo Dramisino Atlanta Actif 119 / 111 40% 1 23.11.2028 -
Facundo Lencioni Gimnasia y Esgrima Actif 127 / 114 40% 3 22.11.2028 -
Imanol Machuca Independiente Actif 132 / 127 40% 2 22.11.2028 -
Nahuel Ulariaga Najran Actif 132 / 124 40% 1 22.11.2028 -
Santiago Longo Belgrano Actif 128 / 119 40% 2 21.11.2028 -
Aarón Molinas Defensa y Justicia Actif 126 / 129 40% 5 21.11.2028 -
Jaime Seoane Al-Faisaly Actif 139 / 147 40% 2 21.11.2028 -
Harry Leonard Rukh Actif 120 / 116 40% 1 21.11.2028 -
Ruslan Neshcheret Oleksandriya Actif 137 / 143 40% 1 20.11.2028 -
Jonathan Fischer FC Metz Actif 144 / 152 40% 1 20.11.2028 -
Alfie Whiteman Newport County Actif 114 / 121 40% 1 20.11.2028 -
Joaquín García Vélez Actif 131 / 139 40% 4 19.11.2028 -
Juan Pintado Gimnasia La Plata Actif 125 / 123 40% 2 19.11.2028 -
Ignacio Perruzzi San Lorenzo Actif 139 / 140 40% 1 19.11.2028 -
Facundo Sanguinetti Banfield Actif 139 / 129 40% 3 18.11.2028 -
Lucas Carrizo Newell's Old Boys Actif 135 / 118 40% 2 18.11.2028 -
Santiago González Tigre Actif 132 / 133 40% 3 18.11.2028 -
Alejandro Rodríguez Melgar Actif 131 / 117 40% 2 18.11.2028 -
Alexis Steimbach Gimnasia La Plata Actif 125 / 120 40% 3 17.11.2028 -
Juan Saborido Platense Actif 123 / 123 40% 2 17.11.2028 -
Parfait Guiagon Hajer Actif 144 / 123 40% 1 17.11.2028 -
Nazareno Durán Huracán Actif 114 / 120 40% 4 16.11.2028 -
Alexis Cuello San Lorenzo Actif 129 / 133 40% 1 16.11.2028 -
Joaquín Blázquez Talleres Actif 126 / 115 40% 4 14.11.2028 -
George Wickens Blackpool Actif 135 / 136 40% 3 14.11.2028 -
Lisandro Piñero Banfield Actif 122 / 121 40% 1 14.11.2028 -
Jeremías Merlo Gimnasia La Plata Actif 123 / 117 40% 1 14.11.2028 -
John Córdoba Millonarios Actif 114 / 113 40% 1 12.11.2028 -
Toni Fruk Talleres Actif 140 / 139 40% 2 10.11.2028 -
Baltasar Rodríguez Estudiantes Actif 117 / 133 40% 1 10.11.2028 -
Francisco González Metilli Belgrano Actif 127 / 126 40% 1 10.11.2028 -
Will Mannion Charlton Athletic Actif 122 / 129 40% 2 09.11.2028 -
Enrico Gallo Chamois Niortais Actif 127 / 144 40% 2 09.11.2028 -
Semuel Pizzignacco Monza Actif 127 / 140 40% 1 09.11.2028 -
Riku Yamane Yokohama F. Marinos Actif 143 / 145 40% 1 08.11.2028 -
Koffi Kouao Neftchi Actif 126 / 124 40% 1 08.11.2028 -
Adam Gnezda Čerin Al Wahda Actif 130 / 131 40% 1 07.11.2028 -
Gonzalo Montiel River Plate Actif 131 / 134 40% 1 07.11.2028 -
Yacine Adli Al-Shabab Actif 157 / 139 40% 3 06.11.2028 -
Mohammed Abu Al-Shamat Al-Qadisiyah Actif 136 / 128 40% 1 06.11.2028 -
Gastón Togni Defensa y Justicia Actif 123 / 132 40% 1 05.11.2028 -
Xavier Dziekoński Slask Actif 141 / 140 40% 4 04.11.2028 -
Gonzalo Plata Nacional Actif 145 / 133 40% 5 04.11.2028 -
Alexander Díaz Deportivo Riestra Actif 118 / 120 40% 2 04.11.2028 -
Luis Ingolotti Atlético Tucumán Actif 120 / 136 40% 2 03.11.2028 -
Lucas Cuevas Rosario Central Actif 127 / 133 40% 2 03.11.2028 -
Guillermo Enrique Huracán Actif 128 / 129 40% 4 30.10.2028 -
Agustín Colazo Unión de Santa Fe Actif 121 / 128 40% 1 30.10.2028 -
Tomás Durso Sarmiento Actif 120 / 130 40% 1 29.10.2028 -
Jakub Stolarczyk Middlesbrough Actif 156 / 145 40% 1 29.10.2028 -
Alex Luna Instituto Actif 128 / 136 40% 1 29.10.2028 -
Ignacio Vázquez Platense Actif 139 / 132 40% 3 27.10.2028 -
Joaquín Gho Argentinos Juniors Actif 139 / 120 40% 1 26.10.2028 -
Nicolás Tripichio San Lorenzo Actif 134 / 125 40% 1 26.10.2028 -
Maximiliano Zalazar Tigre Actif 118 / 123 40% 1 25.10.2028 -
Ollie Watkins Al-Hilal Actif 154 / 150 40% 1 25.10.2028 -
Augusto Schott Talleres Actif 117 / 125 40% 2 24.10.2028 -
Elián Giménez Sarmiento Actif 130 / 134 40% 1 24.10.2028 -
Joe Whitworth Wigan Athletic Actif 120 / 119 40% 2 23.10.2028 -
Viktor Johansson Bournemouth Actif 135 / 141 40% 2 22.10.2028 -
Emanuel Coronel Rosario Central Actif 128 / 128 40% 2 22.10.2028 -
Abduvohid Ne'matov Nasaf Actif 123 / 127 40% 2 22.10.2028 -
Franco Orozco Lanús Actif 121 / 118 40% 1 20.10.2028 -
Ramiro Hernandes Belgrano Actif 115 / 116 40% 3 19.10.2028 -
Luis Rodriguez Valur Actif 131 / 129 40% 2 19.10.2028 -
Alan Lescano Argentinos Juniors Actif 128 / 133 40% 1 19.10.2028 -
Franco Díaz Temperley Actif 127 / 133 40% 3 18.10.2028 -
Franco Watson Lanús Actif 122 / 122 40% 1 18.10.2028 -
Franco Ibarra Rosario Central Actif 123 / 140 40% 3 16.10.2028 -
Juan Carlos Portillo River Plate Actif 126 / 132 40% 1 16.10.2028 -
Cristopher Varela Deportivo La Guaira Actif 117 / 133 40% 4 15.10.2028 -
Gastón Benedetti Estudiantes Actif 140 / 138 40% 2 15.10.2028 -
Luke Faxon Sheffield United Actif 120 / 122 40% 1 15.10.2028 -
Dylan Moody Cheltenham Town Actif 117 / 123 40% 3 14.10.2028 -
Agustín Sández Newell's Old Boys Actif 120 / 134 40% 4 14.10.2028 -
Thimothée Lo-Tutala Stoke City Actif 136 / 134 40% 2 14.10.2028 -
Alan Rodríguez Rosario Central Actif 117 / 124 40% 2 14.10.2028 -
Federico Losas Chacarita Juniors Actif 125 / 129 40% 4 13.10.2028 -
Unai Marrero Real Sociedad Actif 147 / 145 40% 2 13.10.2028 -
Luciano Jachfe Nueva Chicago Actif 122 / 133 40% 3 12.10.2028 -
Nikola Čavlina Dinamo Zagreb Actif 139 / 136 40% 1 12.10.2028 -
Damián Fernández Defensa y Justicia Actif 138 / 136 40% 1 12.10.2028 -
Alexei Rojas Fedorushchenko Barrow AFC Actif 138 / 137 40% 2 10.10.2028 -
Emil Audero Como Actif 129 / 133 40% 2 10.10.2028 -
Manuel Roffo HNK Rijeka Actif 130 / 140 40% 4 09.10.2028 -
Emiliano González Almagro Actif 110 / 116 40% 1 08.10.2028 -
Luca Langoni Columbus Crew Actif 133 / 126 40% 1 07.10.2028 -
Facundo Gulli San Lorenzo Actif 136 / 129 40% 1 07.10.2028 -
Lautaro Morales Lanús Actif 141 / 138 40% 2 04.10.2028 -
Adem Aichouche ES Mostaganem Actif 93 / 96 30% 1 / 1m 04.10.2028 -
Yusuf Akçiçek Al-Hilal Actif 138 / 132 40% 1 04.10.2028 -
Nawaf Al-Aqidi Al-Nassr Actif 117 / 134 40% 2 03.10.2028 -
Roger Ibañez Al-Ahli Actif 157 / 153 40% 2 03.10.2028 -
Marek Rodák Al-Hilal Actif 140 / 146 40% 1 03.10.2028 -
Kevin Ortiz Rosario Central Actif 117 / 125 40% 1 01.10.2028 -
Lautaro Maldonado Instituto Actif 116 / 128 40% 1 29.09.2028 -
Jonmi Magunagoitia Eibar Actif 133 / 140 40% 2 27.09.2028 -
Vladislav Torop CSKA Moscow Actif 136 / 146 40% 1 27.09.2028 -
Stefano Moreyra Independiente Rivadavia Actif 129 / 125 40% 1 26.09.2028 -
Lautaro Giaccone Argentinos Juniors Actif 127 / 132 40% 2 25.09.2028 -
Vladan Kovačević Norwich City Actif 132 / 126 40% 3 24.09.2028 -
Guglielmo Vicario Cardiff City Actif 169 / 164 40% 2 24.09.2028 -
Ziyad Al-Johani Al-Ahli Actif 131 / 123 40% 1 24.09.2028 -
Agustín Cardozo Lanús Actif 130 / 115 40% 1 24.09.2028 -
James Beadle Hull City Actif 145 / 144 40% 2 21.09.2028 -
Matías Ramírez Godoy Cruz Actif 130 / 127 40% 1 19.09.2028 -
Alexey Ploschadny Noah Actif 124 / 127 40% 2 18.09.2028 -
Denys Tvardovskyi Prykarpattia Actif 137 / 124 40% 1 16.09.2028 -
Tomás Bottari Independiente Rivadavia Actif 132 / 133 40% 1 16.09.2028 -
Igor Jesus Los Angeles Football Club Actif 117 / 130 40% 1 16.09.2028 -
Sam Proctor Salford City Actif 115 / 128 40% 1 15.09.2028 -
Imran Oulad Omar Dinamo Batumi Actif 122 / 124 40% 3 08.09.2028 -
Juan Cruz de los Santos Nacional Actif 131 / 136 40% 1 08.09.2028 -
Tomás Chancalay New England Revolution Actif 118 / 138 40% 1 08.09.2028 -
Rodrigo Cabral Huracán Actif 131 / 116 40% 1 07.09.2028 -
Emiliano Gómez Boston River Actif 124 / 110 40% 1 06.09.2028 -
Bruno Leyes Godoy Cruz Actif 138 / 135 40% 4 05.09.2028 -
Manuel Duarte Barracas Central Actif 114 / 129 40% 1 05.09.2028 -
Pedro González Rentistas Actif 126 / 122 40% 1 04.09.2028 -
Joaquín Mosqueira Talleres Actif 118 / 127 40% 2 03.09.2028 -
César Ibáñez Huracán Actif 134 / 121 40% 1 03.09.2028 -
Aarón Quiros Vélez Actif 127 / 129 40% 1 03.09.2028 -
Balázs Tóth Blackburn Rovers Actif 143 / 136 40% 3 01.09.2028 -
Tom Booth Oxford United Actif 117 / 121 40% 1 01.09.2028 -
Marius Marin Al Nasr Actif 134 / 141 40% 2 31.08.2028 -
Lucas Morales Nacional Actif 131 / 125 40% 1 30.08.2028 -
Cristian Rivero Real Sociedad Actif 140 / 150 40% 1 25.08.2028 -
Pêpê Pafos Actif 134 / 128 40% 1 24.08.2028 -
Kevin López Independiente Actif 135 / 122 40% 1 24.08.2028 -
Cristopher Fiermarin Defensa y Justicia Actif 133 / 134 40% 1 23.08.2028 -
Kyrylo Fesiun Dynamo Kyiv Actif 141 / 145 40% 1 23.08.2028 -
Adrián Sánchez Belgrano Actif 120 / 116 40% 1 23.08.2028 -
Toni Fuidias Girona Actif 132 / 133 40% 1 21.08.2028 -
Alessandro Riccio Sampdoria Actif 133 / 135 40% 1 20.08.2028 -
Enrico Delprato Parma Actif 159 / 149 40% 1 20.08.2028 -
Samuel Brolin Kalmar FF Actif 120 / 129 40% 1 20.08.2028 -
Vladimir Nazarov Pakhtakor Actif 111 / 117 40% 1 20.08.2028 -
Carlos Marín Albacete Actif 139 / 135 40% 3 17.08.2028 -
Larbi Tabti MC Alger Perdu 107 / 106 72% 1 14.08.2028 Approuver
Gavin Bazunu Newcastle United Actif 139 / 137 40% 1 14.08.2028 -
Filippo Manfrin Arzignano Actif 121 / 129 40% 2 13.08.2028 -
Lamine Fanne Venezia Actif 129 / 142 40% 1 13.08.2028 -
Juan Velázquez Belgrano Actif 127 / 117 40% 1 13.08.2028 -
Andrea Zaccagno Torres Actif 123 / 124 40% 1 11.08.2028 -
Stefano Filigheddu Monopoli Actif 130 / 123 40% 1 10.08.2028 -
Esquerdinha Notts County Actif 124 / 138 40% 1 09.08.2028 -
George Hall Port Vale Actif 124 / 119 40% 1 09.08.2028 -
Joshua Quarshie Exeter City Actif 133 / 134 40% 4 08.08.2028 -
Daniel Kyerewaa Reading Actif 116 / 123 40% 1 08.08.2028 -
Ryan McAidoo Oldham Athletic Actif 132 / 129 40% 1 08.08.2028 -
George Earthy Reading Actif 119 / 120 40% 1 08.08.2028 -
Terry Devlin Portsmouth Actif 124 / 126 40% 1 08.08.2028 -
Cesare Galeotti Trapani Actif 122 / 120 40% 1 07.08.2028 -
Nathan Bishop AFC Wimbledon Actif 119 / 113 40% 1 07.08.2028 -
Adam Randell Bristol City Actif 133 / 130 40% 1 06.08.2028 -
Lewis Bate Stockport County Actif 130 / 133 40% 1 06.08.2028 -
Gianluca Saro Foggia Actif 132 / 130 40% 2 05.08.2028 -
Fran Vieites Walsall Actif 138 / 136 40% 3 04.08.2028 -
Lukas Jensen Millwall Actif 129 / 132 40% 1 04.08.2028 -
Georgie Gent Barnsley Actif 117 / 123 40% 2 03.08.2028 -
Ethan Williams Peterborough United Actif 116 / 121 40% 1 03.08.2028 -
Mohamadou Kanté Crawley Town Actif 124 / 130 40% 1 03.08.2028 -
Óscar Al-Diriyah Actif 135 / 135 40% 1 03.08.2028 -
Josh Nichols Oldham Athletic Actif 124 / 136 40% 1 03.08.2028 -
Charlie Webster Burton Albion Actif 120 / 119 40% 1 03.08.2028 -
Samuele Perisan Reggiana Actif 116 / 126 40% 2 31.07.2028 -
Jack Shepherd Swindon Town Actif 118 / 120 40% 1 30.07.2028 -
Lee Buchanan Sheffield Wednesday Actif 122 / 125 40% 1 30.07.2028 -
Ludovico Del Sorbo Sorrento Actif 117 / 133 40% 2 28.07.2028 -
Johnly Yfeko Exeter City Actif 117 / 121 40% 1 28.07.2028 -
Louis Reed Mansfield Town Actif 119 / 113 40% 1 28.07.2028 -
Will Smallbone Crewe Alexandra Actif 133 / 138 40% 1 25.07.2028 -
Rob Atkinson Bristol City Actif 137 / 131 40% 1 25.07.2028 -
Filippo Rinaldi Parma Actif 127 / 125 40% 2 24.07.2028 -
Nathan Trott Cardiff City Actif 141 / 137 40% 2 24.07.2028 -
Terry Taylor Charlton Athletic Actif 137 / 119 40% 2 24.07.2028 -
Di'Shon Bernard Sheffield Wednesday Actif 129 / 122 40% 1 24.07.2028 -
Dion Sanderson AFC Wimbledon Actif 134 / 122 40% 1 22.07.2028 -
Hayden Matthews Tranmere Rovers Actif 120 / 112 40% 1 20.07.2028 -
Ben Sheaf Wrexham Actif 146 / 146 40% 1 20.07.2028 -
Maílson Al-Taawoun Actif 140 / 134 40% 1 19.07.2028 -
Amir Saipi Mallorca Actif 134 / 140 40% 1 19.07.2028 -
Francesco D'Alterio Ternana Actif 114 / 113 40% 1 18.07.2028 -
Andre Dozzell Bradford City Actif 117 / 130 40% 2 13.07.2028 -
Kyle John Port Vale Actif 123 / 115 40% 1 13.07.2028 -
Murphy Cooper Plymouth Argyle Actif 120 / 133 40% 2 12.07.2028 -
Sergio Barlocco Trento Actif 133 / 117 40% 1 12.07.2028 -
Joe Walsh Queens Park Rangers Actif 113 / 114 40% 2 11.07.2028 -
Mohamed Benkhemassa MC Alger Perdu 104 / 110 72% 1 10.07.2028 -
Brad Hills Stockport County Actif 137 / 119 40% 1 09.07.2028 -
Alex Bass Peterborough United Actif 124 / 128 40% 1 07.07.2028 -
Filip Marschall Stevenage Actif 122 / 122 40% 1 04.07.2028 -
Zakaria Naïdji MC Alger Refusé 111 / 116 72% 1 03.07.2028 Refuser
Jay Gorter Pafos Actif 127 / 132 40% 1 03.07.2028 -
M'Bala Nzola Cagliari Actif 123 / 141 40% 3 01.07.2028 -
Igor Tyjon Barrow AFC Actif 114 / 119 40% 2 01.07.2028 -
Rocco Vata Watford Actif 138 / 120 40% 5 30.06.2028 -
Pedro Mendes Modena Actif 136 / 126 40% 4 30.06.2028 -
Mees Rijks Bristol Rovers Actif 113 / 120 40% 2 30.06.2028 -
Harvey Blair Portsmouth Actif 131 / 128 40% 2 29.06.2028 -
Callum Lang Preston Actif 129 / 127 40% 4 29.06.2028 -
Andrea Adorante Venezia Actif 134 / 137 40% 4 29.06.2028 -
Brandon Thomas-Asante Blackpool Actif 135 / 134 40% 4 28.06.2028 -
Max Lowe Sheffield Wednesday Actif 129 / 131 40% 1 27.06.2028 -
Taylor Harwood-Bellis Stockport County Actif 136 / 135 40% 1 27.06.2028 -
Luca Moro Padova Actif 127 / 125 40% 3 26.06.2028 -
Tashreeq Matthews Bloemfontein Celtic Actif 125 / 132 40% 1 26.06.2028 -
Charlie Kelman Barnsley Actif 125 / 123 40% 2 22.06.2028 -
Lorent Tolaj Plymouth Argyle Actif 132 / 127 40% 1 22.06.2028 -
Mohamed Touré Cardiff City Actif 126 / 133 40% 2 20.06.2028 -
Norman Bassette Coventry City Actif 127 / 117 40% 2 20.06.2028 -
Daryl Dike West Bromwich Albion Actif 127 / 122 40% 1 20.06.2028 -
Arthur Sales Maritzburg United Actif 124 / 124 40% 3 19.06.2028 -
Josh Stokes Bristol City Actif 124 / 117 40% 3 19.06.2028 -
Gabriele Gori Ascoli Actif 120 / 122 40% 3 18.06.2028 -
Eli King Gillingham Actif 126 / 116 40% 1 17.06.2028 -
Luca Connell Barnsley Actif 128 / 123 40% 1 17.06.2028 -
Lucas Pires Wolverhampton Actif 135 / 139 40% 1 17.06.2028 -
Timur Suleimanov Nizhniy Novgorod Actif 131 / 119 40% 4 16.06.2028 -
Sam Dalby Bolton Wanderers Actif 109 / 125 40% 4 16.06.2028 -
Joe Rodon Blackburn Rovers Actif 150 / 153 40% 1 16.06.2028 -
Jayden Sweeney Grimsby Town Actif 118 / 106 40% 1 16.06.2028 -
Daniel Jebbison Bournemouth Actif 133 / 124 40% 2 13.06.2028 -
Carlos Gugenheim Grimsby Town Actif 107 / 108 40% 1 13.06.2028 -
Kyle Wootton Stockport County Actif 124 / 118 40% 6 12.06.2028 -
Manuel De Luca Cremonese Actif 131 / 121 40% 3 12.06.2028 -
Christian Saydee Wigan Athletic Actif 119 / 122 40% 1 12.06.2028 -
Moussa Koné Al-Ra'ed Actif 127 / 132 40% 2 08.06.2028 -
Ante Crnac Bristol Rovers Actif 117 / 131 40% 3 06.06.2028 -
Luca Vido Union Brescia Actif 107 / 113 40% 1 01.06.2028 -
Kaye Furo Reading Actif 123 / 138 40% 1 27.05.2028 -
Kleis Bozhanaj Modena Actif 124 / 118 40% 1 21.05.2028 -
Vyacheslav Grulev Nizhniy Novgorod Actif 112 / 107 40% 3 20.05.2028 -
Etiosa Ighodaro Kaizer Chiefs Actif 113 / 112 40% 2 19.05.2028 -
Stiven Shpendi Empoli Actif 114 / 130 40% 1 19.05.2028 -
Jérémy Le Douaron Palermo Actif 140 / 125 40% 1 13.05.2028 -
Emanuele Schimmenti Potenza Actif 126 / 109 40% 2 08.05.2028 -
Sam Nombe Milton Keynes Dons Actif 108 / 125 40% 2 04.05.2028 -
Adam Idah Swansea City Actif 139 / 135 40% 3 02.05.2028 -
Simone Mazzocchi Cosenza Actif 122 / 109 40% 1 02.05.2028 -
Camillo Tavernelli Arezzo Actif 125 / 109 40% 2 26.04.2028 -
Alieu Njie Torino Refusé 140 / 129 40% 1 22.04.2028 -
Siyabonga Mabena Bidvest Wits Actif 121 / 127 40% 2 18.04.2028 -
Augustus Kargbo Blackburn Rovers Actif 127 / 121 40% 2 17.04.2028 -
Miro Arsenal Tula Actif 106 / 117 40% 2 16.04.2028 -
Victor Torp Bristol Rovers Actif 125 / 124 40% 2 12.04.2028 -
Malik Mothersille Stockport County Actif 115 / 113 40% 2 12.04.2028 -
Che Adams Torino Actif 140 / 137 40% 1 11.04.2028 -
Oli McBurnie Hull City Actif 150 / 147 40% 1 09.04.2028 -
Aaron Collins Milton Keynes Dons Actif 133 / 120 40% 1 07.04.2028 -
Marezi Portsmouth Actif 131 / 119 40% 1 07.04.2028 -
Walid Cheddira Avellino Actif 126 / 123 40% 2 06.04.2028 -
Konan N'Dri Lecce Actif 133 / 144 40% 1 06.04.2028 -
Sam Bell Bristol City Actif 116 / 120 40% 1 05.04.2028 -
Egas Cacintura Akhmat Grozny Actif 134 / 123 40% 1 03.04.2028 -
Tyreece Campbell Charlton Athletic Actif 126 / 120 40% 1 02.04.2028 -
Dale Taylor Blackpool Actif 114 / 114 40% 1 01.04.2028 -
Alfie James USM Khenchela Actif 99 / 102 42% 1 / 1m 29.03.2028 -
Ismail Saadi JS Saoura Actif 104 / 104 30% 1 / 1m 29.03.2028 -
Marco Tumminello Benevento Actif 107 / 116 40% 1 29.03.2028 -
Liam Cullen Swansea City Actif 113 / 133 40% 1 29.03.2028 -
Wilfried Kanga Al-Fateh Actif 126 / 111 40% 1 19.03.2028 -